This is the latest recevied weather packets stored in our database for station/object OZ0AJ-13. If no packets are shown the sender has not sent any weather packets the latest 10 day(s).
| Time | Temp. | Humidity | Pressure | Rain* | Wind** | Luminosity | Snow |
|---|---|---|---|---|---|---|---|
| 1777577435 | 12.78° C | 49% | 1030.5 hPa | 0 mm | - | - | - |
| 1777576831 | 12.78° C | 48% | 1030.4 hPa | 0 mm | - | - | - |
| 1777576227 | 13.33° C | 47% | 1030.3 hPa | 0 mm | - | - | - |
| 1777575623 | 13.89° C | 47% | 1030.3 hPa | 0 mm | - | - | - |
| 1777575019 | 14.44° C | 47% | 1030.3 hPa | 0 mm | - | - | - |
| 1777574435 | 15° C | 46% | 1030.2 hPa | 0 mm | - | - | - |
| 1777573831 | 16.11° C | 42% | 1030.1 hPa | 0 mm | - | - | - |
| 1777573227 | 17.22° C | 39% | 1030.2 hPa | 0 mm | - | - | - |
| 1777561230 | 17.78° C | 38% | 1031.4 hPa | 0 mm | - | - | - |
| 1777560626 | 18.33° C | 37% | 1031.3 hPa | 0 mm | - | - | - |
| 1777560022 | 17.78° C | 38% | 1031.4 hPa | 0 mm | - | - | - |
| 1777559418 | 17.22° C | 38% | 1031.6 hPa | 0 mm | - | - | - |
| 1777558835 | 17.78° C | 36% | 1031.6 hPa | 0 mm | - | - | - |
| 1777558231 | 17.22° C | 37% | 1031.6 hPa | 0 mm | - | - | - |
| 1777557627 | 17.78° C | 37% | 1031.6 hPa | 0 mm | - | - | - |
| 1777557023 | 16.67° C | 38% | 1031.7 hPa | 0 mm | - | - | - |
| 1777556419 | 17.22° C | 37% | 1031.9 hPa | 0 mm | - | - | - |
| 1777555835 | 16.67° C | 36% | 1031.9 hPa | 0 mm | - | - | - |
| 1777555231 | 17.22° C | 35% | 1031.9 hPa | 0 mm | - | - | - |
| 1777554627 | 17.22° C | 35% | 1032 hPa | 0 mm | - | - | - |
| 1777554023 | 16.67° C | 37% | 1032 hPa | 0 mm | - | - | - |
| 1777553420 | 16.11° C | 37% | 1032.1 hPa | 0 mm | - | - | - |
| 1777552816 | 16.67° C | 36% | 1032.1 hPa | 0 mm | - | - | - |
| 1777552232 | 16.67° C | 36% | 1032.4 hPa | 0 mm | - | - | - |
| 1777551628 | 16.67° C | 35% | 1032.4 hPa | 0 mm | - | - | - |
* Rain latest hour (hover to see other rain measurements)
** Current wind speed in m/s (hover to see current wind gust speed)